Terminal Aerodrome Forecast
Issued by NWS

Home | Current Version | Previous Version | Text Only | Print | Product List | Glossary On
Versions: 1 2 3 4 5 6 7 8 9 10 11 12 13 14
000
FTUS44 KEPZ 070500
TAFTCS
TAF
KTCS 070520Z 0706/0806 20017G27KT P6SM SKC
     FM070800 28008KT P6SM SKC
     FM071700 18010G18KT P6SM FEW100
     FM072000 21015G25KT P6SM FEW100 FEW250
     FM080200 21009KT P6SM FEW100 SCT140 SCT250=

USA.gov is the U.S. government's official web portal to all federal, state and local government web resources and services.